Time;durP1;ratioP1;P1;durP2;ratioP2;P2;SDS_P1;SDS_P2;PMS_P1;PMS_P2;Temp;Humidity;BMP_temperature;BMP_pressure;BME280_temperature;BME280_humidity;BME280_pressure;Samples;Min_cycle;Max_cycle;Signal;HPM_P1;HPM_P2
2023/12/04 00:01:14;;;;;;;11.55;7.68;;;6.10;65.30;8.10;101064.00;;;;5050206;28;20207;-79
2023/12/04 00:03:41;;;;;;;10.00;6.57;;;6.20;65.40;8.10;101065.00;;;;5050969;28;20221;-78
2023/12/04 00:06:11;;;;;;;12.30;7.93;;;6.20;65.30;8.10;101067.00;;;;5058052;28;20199;-79
2023/12/04 00:08:38;;;;;;;11.48;7.55;;;6.20;65.40;8.10;101070.00;;;;5055239;28;20201;-78
2023/12/04 00:11:06;;;;;;;11.02;6.85;;;6.20;65.30;8.20;101064.00;;;;5052323;28;20236;-80
2023/12/04 00:13:35;;;;;;;10.13;7.05;;;6.30;65.40;8.20;101049.00;;;;5062941;28;20191;-79
2023/12/04 00:16:02;;;;;;;12.25;7.55;;;6.30;65.30;8.20;101052.00;;;;5059099;28;20203;-79
2023/12/04 00:18:29;;;;;;;10.43;5.93;;;6.30;65.20;8.20;101034.00;;;;5055528;28;20203;-79
2023/12/04 00:20:56;;;;;;;9.82;6.00;;;6.30;65.10;8.20;101049.00;;;;5050994;28;20200;-79
2023/12/04 00:23:23;;;;;;;10.45;5.95;;;6.30;65.10;8.20;101046.00;;;;5056764;28;20564;-79
2023/12/04 00:25:50;;;;;;;10.30;6.97;;;6.30;65.00;8.20;101044.00;;;;5061657;28;20187;-79
2023/12/04 00:28:16;;;;;;;14.02;7.28;;;6.30;64.90;8.20;101035.00;;;;5058109;28;20211;-79
2023/12/04 00:30:46;;;;;;;11.50;7.95;;;6.30;64.80;8.20;101032.00;;;;5057865;28;20653;-79
2023/12/04 00:33:13;;;;;;;11.13;7.47;;;6.40;64.90;8.20;101032.00;;;;5053879;28;20212;-79
2023/12/04 00:35:40;;;;;;;11.48;6.90;;;6.40;64.80;8.20;101023.00;;;;5055566;28;20199;-79
2023/12/04 00:38:07;;;;;;;10.27;7.13;;;6.30;64.80;8.30;101011.00;;;;5052127;28;20211;-79
2023/12/04 00:40:34;;;;;;;13.10;8.30;;;6.40;64.90;8.30;101017.00;;;;5061943;28;20559;-79
2023/12/04 00:43:01;;;;;;;12.10;7.90;;;6.40;64.90;8.30;101008.00;;;;5058802;28;20200;-79
2023/12/04 00:45:28;;;;;;;11.82;7.57;;;6.40;64.90;8.30;101003.00;;;;5058745;28;20553;-79
2023/12/04 00:47:56;;;;;;;11.07;7.63;;;6.40;64.80;8.30;101007.00;;;;5057142;28;20215;-79
2023/12/04 00:50:23;;;;;;;12.27;7.53;;;6.40;64.80;8.30;101004.00;;;;5059719;28;20203;-80
2023/12/04 00:52:50;;;;;;;12.13;7.32;;;6.40;64.90;8.30;101008.00;;;;5064811;28;20222;-79
2023/12/04 00:55:17;;;;;;;12.02;7.93;;;6.40;64.80;8.30;101006.00;;;;5065446;28;20217;-79
2023/12/04 00:57:44;;;;;;;11.63;7.07;;;6.40;64.90;8.30;101006.00;;;;5064275;28;20195;-78
2023/12/04 01:00:12;;;;;;;12.02;7.63;;;6.40;64.90;8.30;100997.00;;;;5050869;28;20665;-79
2023/12/04 01:02:40;;;;;;;10.73;7.70;;;6.40;64.90;8.30;100999.00;;;;5057524;28;20203;-78
2023/12/04 01:05:09;;;;;;;12.70;7.93;;;6.40;64.90;8.30;100997.00;;;;5048515;28;20206;-78
2023/12/04 01:07:36;;;;;;;10.95;7.35;;;6.40;64.90;8.30;101003.00;;;;5052024;28;20195;-79
2023/12/04 01:10:05;;;;;;;10.57;6.80;;;6.40;64.90;8.30;100996.00;;;;5056206;28;20240;-78
2023/12/04 01:12:33;;;;;;;11.80;7.22;;;6.40;64.90;8.30;100994.00;;;;5057953;28;20214;-79
2023/12/04 01:15:01;;;;;;;11.88;6.80;;;6.40;64.90;8.30;100988.00;;;;5053249;28;21108;-79
2023/12/04 01:17:28;;;;;;;11.30;7.45;;;6.40;64.90;8.30;100985.00;;;;5054989;28;20599;-78
2023/12/04 01:19:57;;;;;;;12.70;7.80;;;6.40;64.90;8.30;100988.00;;;;5054462;28;20200;-78
2023/12/04 01:22:25;;;;;;;12.70;7.80;;;6.40;64.90;8.30;100977.00;;;;5058412;28;20933;-79
2023/12/04 01:24:52;;;;;;;13.55;7.97;;;6.40;64.80;8.30;100973.00;;;;5058167;28;20196;-78
2023/12/04 01:27:19;;;;;;;12.05;8.00;;;6.40;64.80;8.30;100974.00;;;;5054389;28;20564;-79
2023/12/04 01:29:46;;;;;;;10.48;7.25;;;6.40;64.80;8.30;100978.00;;;;5060480;28;20200;-78
2023/12/04 01:32:13;;;;;;;14.07;7.70;;;6.40;64.80;8.30;100969.00;;;;5054524;28;20720;-79
2023/12/04 01:34:40;;;;;;;14.15;8.35;;;6.40;64.70;8.30;100971.00;;;;5063396;28;20197;-79
2023/12/04 01:37:07;;;;;;;12.98;7.70;;;6.40;64.70;8.30;100962.00;;;;5055371;28;20215;-78
2023/12/04 01:39:35;;;;;;;13.88;8.70;;;6.40;64.60;8.20;100970.00;;;;5066171;28;20199;-78
2023/12/04 01:42:02;;;;;;;12.50;7.47;;;6.40;64.70;8.20;100961.00;;;;5061211;28;20188;-79
2023/12/04 01:44:29;;;;;;;11.85;7.63;;;6.40;64.70;8.30;100969.00;;;;5060568;28;20202;-79
2023/12/04 01:46:57;;;;;;;13.95;8.50;;;6.40;64.70;8.30;100961.00;;;;5064407;28;20218;-78
2023/12/04 01:49:24;;;;;;;13.05;7.95;;;6.30;64.70;8.20;100958.00;;;;5067676;28;20206;-79
2023/12/04 01:51:52;;;;;;;12.65;7.95;;;6.30;64.60;8.20;100961.00;;;;5053433;28;20223;-79
2023/12/04 01:54:20;;;;;;;14.38;8.50;;;6.40;64.70;8.20;100963.00;;;;5051440;28;20207;-79
2023/12/04 01:56:49;;;;;;;12.32;7.47;;;6.30;64.60;8.20;100949.00;;;;5053109;28;20203;-79
2023/12/04 01:59:17;;;;;;;12.70;7.65;;;6.30;64.70;8.20;100957.00;;;;5054464;28;20584;-79
2023/12/04 02:01:44;;;;;;;13.60;8.20;;;6.30;64.70;8.20;100951.00;;;;5065919;28;20195;-79
2023/12/04 02:04:12;;;;;;;13.13;8.13;;;6.30;64.70;8.20;100943.00;;;;5065444;28;20198;-78
2023/12/04 02:06:41;;;;;;;13.18;8.10;;;6.30;64.70;8.20;100943.00;;;;5058202;28;20195;-80
2023/12/04 02:09:12;;;;;;;12.68;8.18;;;6.30;64.70;8.20;100940.00;;;;5055290;28;20199;-79
2023/12/04 02:11:40;;;;;;;12.38;7.95;;;6.30;64.70;8.20;100934.00;;;;5066479;28;20194;-79
2023/12/04 02:14:08;;;;;;;13.43;8.32;;;6.30;64.80;8.20;100938.00;;;;5062706;28;20211;-78
2023/12/04 02:16:41;;;;;;;13.52;8.55;;;6.30;64.80;8.20;100928.00;;;;5052869;28;20940;-79
2023/12/04 02:19:12;;;;;;;11.30;7.47;;;6.30;64.80;8.20;100929.00;;;;5058131;28;20207;-78
2023/12/04 02:21:39;;;;;;;14.55;8.60;;;6.30;64.70;8.20;100929.00;;;;5056781;28;20195;-78
2023/12/04 02:24:07;;;;;;;13.63;8.68;;;6.30;64.70;8.20;100920.00;;;;5058877;28;20192;-79
2023/12/04 02:26:47;;;;;;;13.55;8.85;;;6.30;64.70;8.20;100911.00;;;;5063203;28;20214;-79
2023/12/04 02:29:29;;;;;;;12.40;8.02;;;6.30;64.70;8.20;100917.00;;;;5052837;28;20198;-79
2023/12/04 02:31:57;;;;;;;15.65;9.02;;;6.30;64.70;8.20;100907.00;;;;5059142;28;20214;-78
2023/12/04 02:34:26;;;;;;;14.07;8.02;;;6.30;64.70;8.20;100900.00;;;;5069617;28;20209;-79
2023/12/04 02:36:54;;;;;;;11.80;7.57;;;6.30;64.80;8.20;100905.00;;;;5062879;28;21013;-79
2023/12/04 02:39:23;;;;;;;13.32;8.13;;;6.30;64.80;8.20;100896.00;;;;5067162;28;20199;-79
2023/12/04 02:41:51;;;;;;;12.70;8.68;;;6.30;64.70;8.20;100891.00;;;;5068954;28;20201;-80
2023/12/04 02:44:18;;;;;;;14.63;8.57;;;6.30;64.60;8.20;100885.00;;;;5055633;28;20282;-78
2023/12/04 02:46:45;;;;;;;17.17;9.35;;;6.30;64.60;8.20;100888.00;;;;5067229;28;20587;-79
2023/12/04 02:49:12;;;;;;;14.18;8.23;;;6.30;64.60;8.20;100882.00;;;;5060299;28;20203;-79
2023/12/04 02:51:42;;;;;;;13.40;7.97;;;6.30;64.60;8.20;100876.00;;;;5057744;28;20574;-79
2023/12/04 02:54:09;;;;;;;13.35;7.03;;;6.30;64.70;8.20;100869.00;;;;5069290;28;20614;-79
2023/12/04 02:56:37;;;;;;;14.57;8.82;;;6.30;64.60;8.20;100874.00;;;;5069078;28;20217;-79
2023/12/04 02:59:04;;;;;;;12.60;7.72;;;6.30;64.60;8.20;100862.00;;;;5056654;28;20203;-79
2023/12/04 03:01:31;;;;;;;13.15;8.35;;;6.30;64.60;8.20;100871.00;;;;5061828;28;20216;-79
2023/12/04 03:03:58;;;;;;;13.32;8.70;;;6.30;64.60;8.20;100865.00;;;;5066846;28;20199;-79
2023/12/04 03:06:25;;;;;;;12.48;7.93;;;6.30;64.60;8.20;100861.00;;;;5062854;28;20195;-79
2023/12/04 03:08:52;;;;;;;13.48;8.40;;;6.30;64.60;8.20;100859.00;;;;5064346;28;20199;-79
2023/12/04 03:11:20;;;;;;;12.35;7.32;;;6.30;64.60;8.20;100855.00;;;;5064656;28;20234;-79
2023/12/04 03:13:48;;;;;;;9.90;7.10;;;6.30;64.60;8.20;100850.00;;;;5060223;28;20229;-79
2023/12/04 03:16:19;;;;;;;12.45;7.97;;;6.20;64.60;8.20;100847.00;;;;5063806;28;20584;-79
2023/12/04 03:18:46;;;;;;;12.95;7.63;;;6.20;64.70;8.20;100852.00;;;;5065392;28;20202;-79
2023/12/04 03:21:13;;;;;;;12.70;8.48;;;6.30;64.60;8.20;100839.00;;;;5060591;28;20200;-79
2023/12/04 03:23:40;;;;;;;12.50;7.95;;;6.30;64.60;8.20;100838.00;;;;5051262;28;21007;-78
2023/12/04 03:26:08;;;;;;;11.75;7.65;;;6.30;64.50;8.20;100828.00;;;;5064511;28;20206;-79
2023/12/04 03:28:38;;;;;;;12.30;7.88;;;6.20;64.50;8.20;100824.00;;;;5060152;28;20208;-79
2023/12/04 03:31:08;;;;;;;13.43;8.57;;;6.30;64.60;8.20;100830.00;;;;5059576;28;20195;-79
2023/12/04 03:33:35;;;;;;;11.23;6.68;;;6.20;64.50;8.20;100830.00;;;;5063899;28;20215;-79
2023/12/04 03:36:02;;;;;;;13.82;7.97;;;6.20;64.40;8.20;100818.00;;;;5062628;28;20195;-78
2023/12/04 03:38:29;;;;;;;12.40;8.07;;;6.20;64.50;8.20;100818.00;;;;5068107;28;20203;-79
2023/12/04 03:40:55;;;;;;;11.77;7.60;;;6.30;64.50;8.20;100811.00;;;;5055281;28;20191;-79
2023/12/04 03:43:22;;;;;;;11.63;7.40;;;6.20;64.40;8.20;100805.00;;;;5063279;28;20601;-79
2023/12/04 03:45:49;;;;;;;11.52;7.22;;;6.20;64.40;8.20;100804.00;;;;5060769;28;21041;-79
2023/12/04 03:48:18;;;;;;;12.48;7.53;;;6.20;64.40;8.10;100800.00;;;;5060961;28;20195;-79
2023/12/04 03:50:45;;;;;;;13.65;8.10;;;6.20;64.40;8.10;100804.00;;;;5060197;28;20200;-78
2023/12/04 03:53:11;;;;;;;12.65;7.78;;;6.20;64.40;8.10;100798.00;;;;5055391;28;20215;-79
2023/12/04 03:55:38;;;;;;;13.05;7.85;;;6.20;64.30;8.10;100790.00;;;;5060014;28;20576;-79
2023/12/04 03:58:05;;;;;;;10.70;6.68;;;6.20;64.30;8.10;100790.00;;;;5065629;28;20195;-78
2023/12/04 04:00:32;;;;;;;11.05;7.30;;;6.20;64.30;8.10;100783.00;;;;5062410;28;20261;-78
2023/12/04 04:02:59;;;;;;;12.35;7.72;;;6.20;64.30;8.10;100786.00;;;;5054805;28;20203;-78
2023/12/04 04:05:28;;;;;;;12.30;8.00;;;6.10;64.20;8.00;100782.00;;;;5052198;28;20203;-78
2023/12/04 04:07:55;;;;;;;13.95;7.93;;;6.10;64.20;8.00;100778.00;;;;5057538;28;20193;-78
2023/12/04 04:10:22;;;;;;;11.80;7.78;;;6.10;64.20;8.00;100779.00;;;;5062331;28;20231;-78
2023/12/04 04:12:50;;;;;;;13.98;8.70;;;6.10;64.20;8.00;100779.00;;;;5053377;28;20215;-78
2023/12/04 04:15:17;;;;;;;11.27;7.40;;;6.10;64.20;8.00;100772.00;;;;5053983;28;20210;-78
2023/12/04 04:17:44;;;;;;;13.25;8.57;;;6.10;64.10;8.00;100771.00;;;;5065462;28;20191;-79
2023/12/04 04:20:12;;;;;;;12.38;7.57;;;6.10;64.20;8.00;100769.00;;;;5063437;28;20217;-78
2023/12/04 04:22:40;;;;;;;10.18;7.00;;;6.10;64.30;7.90;100761.00;;;;5065883;28;21086;-79
2023/12/04 04:25:09;;;;;;;11.20;7.25;;;6.10;64.30;7.90;100758.00;;;;5053522;28;20206;-78
2023/12/04 04:27:36;;;;;;;13.35;8.10;;;6.00;64.10;8.00;100755.00;;;;5062818;28;20290;-78
2023/12/04 04:30:04;;;;;;;11.40;6.82;;;6.10;64.20;7.90;100753.00;;;;5059157;28;20278;-78
2023/12/04 04:32:31;;;;;;;9.93;6.47;;;6.10;64.20;8.00;100747.00;;;;5058031;28;20226;-79
2023/12/04 04:34:58;;;;;;;9.30;6.28;;;6.10;64.20;8.00;100743.00;;;;5065282;28;20210;-78
2023/12/04 04:37:25;;;;;;;11.02;6.65;;;6.10;64.30;8.00;100750.00;;;;5058487;28;20198;-78
2023/12/04 04:39:53;;;;;;;11.60;7.65;;;6.10;64.30;7.90;100742.00;;;;5056454;28;20202;-78
2023/12/04 04:42:20;;;;;;;11.45;7.55;;;6.10;64.30;7.90;100748.00;;;;5061970;28;20206;-79
2023/12/04 04:44:47;;;;;;;11.80;7.25;;;6.10;64.20;7.90;100749.00;;;;5056391;28;20199;-78
2023/12/04 04:47:14;;;;;;;10.35;7.28;;;6.10;64.10;7.90;100748.00;;;;5059388;28;21130;-79
2023/12/04 04:49:41;;;;;;;11.88;7.03;;;6.10;64.00;7.90;100747.00;;;;5059735;28;20599;-79
2023/12/04 04:52:08;;;;;;;10.93;7.15;;;6.10;64.00;7.90;100744.00;;;;5056238;28;20211;-78
2023/12/04 04:54:35;;;;;;;12.15;7.80;;;6.10;64.00;7.90;100740.00;;;;5054977;28;20623;-78
2023/12/04 04:57:04;;;;;;;11.32;7.20;;;6.10;64.00;7.90;100737.00;;;;5062541;28;20207;-78
2023/12/04 04:59:32;;;;;;;11.25;7.13;;;6.00;63.90;7.90;100736.00;;;;5054789;28;20573;-78
2023/12/04 05:01:59;;;;;;;10.43;7.15;;;6.00;63.90;7.90;100736.00;;;;5064153;28;20208;-78
2023/12/04 05:04:26;;;;;;;9.77;6.30;;;6.10;64.00;7.90;100727.00;;;;5059868;28;20200;-78
2023/12/04 05:06:53;;;;;;;10.70;7.00;;;6.00;63.90;7.90;100736.00;;;;5056227;28;20201;-79
2023/12/04 05:09:21;;;;;;;11.30;7.43;;;6.00;63.90;7.90;100732.00;;;;5065189;28;20195;-78
2023/12/04 05:11:48;;;;;;;8.98;5.90;;;6.00;63.90;7.90;100729.00;;;;5058763;28;20229;-78
2023/12/04 05:14:16;;;;;;;10.60;7.22;;;6.00;63.90;7.80;100722.00;;;;5060207;28;20227;-78
2023/12/04 05:16:43;;;;;;;11.98;7.32;;;6.00;63.90;7.90;100721.00;;;;5052809;28;20200;-78
2023/12/04 05:19:10;;;;;;;10.43;6.70;;;6.00;63.90;7.90;100727.00;;;;5052028;28;20206;-78
2023/12/04 05:21:37;;;;;;;9.65;6.50;;;6.00;63.90;7.90;100716.00;;;;5067451;28;20198;-79
2023/12/04 05:24:04;;;;;;;10.35;6.63;;;6.00;63.90;7.90;100722.00;;;;5057128;28;20199;-78
2023/12/04 05:26:31;;;;;;;11.52;7.40;;;6.00;63.90;7.90;100720.00;;;;5067484;28;20672;-79
2023/12/04 05:28:58;;;;;;;12.18;7.72;;;6.00;64.00;7.90;100714.00;;;;5057020;28;20206;-78
2023/12/04 05:31:27;;;;;;;10.43;6.72;;;6.00;63.90;7.90;100705.00;;;;5062656;28;20225;-78
2023/12/04 05:33:54;;;;;;;10.93;7.15;;;6.00;63.90;7.90;100698.00;;;;5054700;28;20237;-78
2023/12/04 05:36:21;;;;;;;12.00;6.93;;;6.00;63.90;7.90;100690.00;;;;5057128;28;20565;-78
2023/12/04 05:38:48;;;;;;;11.32;7.63;;;6.00;63.80;7.90;100693.00;;;;5063814;28;20856;-78
2023/12/04 05:41:16;;;;;;;12.90;7.35;;;6.00;63.80;7.90;100686.00;;;;5059216;28;20222;-78
2023/12/04 05:43:43;;;;;;;12.48;7.78;;;6.00;63.80;7.90;100680.00;;;;5050068;28;20552;-78
2023/12/04 05:46:10;;;;;;;11.70;7.40;;;6.00;63.80;7.90;100674.00;;;;5050622;28;20720;-79
2023/12/04 05:48:38;;;;;;;10.30;7.25;;;6.10;63.90;7.90;100665.00;;;;5066073;28;20675;-78
2023/12/04 05:51:06;;;;;;;10.85;7.20;;;6.10;63.90;7.90;100676.00;;;;5061536;28;20203;-78
2023/12/04 05:53:33;;;;;;;10.45;7.13;;;6.00;63.80;7.90;100664.00;;;;5065487;28;20223;-78
2023/12/04 05:56:00;;;;;;;9.25;6.25;;;6.10;63.90;7.90;100673.00;;;;5055858;28;20652;-79
2023/12/04 05:58:27;;;;;;;9.90;6.80;;;6.10;63.80;8.00;100666.00;;;;5059508;28;20199;-79
2023/12/04 06:00:53;;;;;;;9.45;6.70;;;6.10;63.90;8.00;100663.00;;;;5063549;28;20576;-78
2023/12/04 06:03:21;;;;;;;9.88;6.43;;;6.10;63.90;8.00;100656.00;;;;5058324;28;20199;-79
2023/12/04 06:05:50;;;;;;;11.60;7.43;;;6.10;64.00;8.00;100656.00;;;;5062493;28;20199;-78
2023/12/04 06:08:19;;;;;;;9.07;5.88;;;6.10;63.80;7.90;100662.00;;;;5067260;28;20199;-78
2023/12/04 06:10:47;;;;;;;10.65;7.50;;;6.10;63.70;8.00;100659.00;;;;5060585;28;20226;-78
2023/12/04 06:13:14;;;;;;;9.25;6.85;;;6.10;63.70;8.00;100668.00;;;;5064660;28;20222;-78
2023/12/04 06:15:41;;;;;;;10.50;6.53;;;6.10;63.70;8.00;100656.00;;;;5048354;28;20222;-78
2023/12/04 06:18:08;;;;;;;7.95;5.60;;;6.10;63.60;8.00;100666.00;;;;5051992;28;20202;-79
2023/12/04 06:20:35;;;;;;;11.15;7.65;;;6.10;63.70;8.00;100658.00;;;;5055758;28;20195;-78
2023/12/04 06:23:04;;;;;;;9.82;6.93;;;6.10;64.30;8.00;100664.00;;;;5059942;28;20289;-77
2023/12/04 06:25:32;;;;;;;10.38;6.88;;;6.10;63.50;8.00;100661.00;;;;5047209;28;20199;-76
2023/12/04 06:27:59;;;;;;;11.02;7.25;;;6.10;63.50;8.00;100655.00;;;;5051683;28;20211;-75
2023/12/04 06:30:27;;;;;;;9.77;6.53;;;6.10;63.50;8.00;100647.00;;;;5054183;28;20208;-75
2023/12/04 06:32:55;;;;;;;9.98;6.22;;;6.10;63.50;8.00;100649.00;;;;5065286;28;20203;-76
2023/12/04 06:35:23;;;;;;;8.82;6.28;;;6.10;63.50;8.00;100645.00;;;;5056950;28;20573;-76
2023/12/04 06:37:54;;;;;;;9.23;6.68;;;6.10;63.40;7.90;100643.00;;;;5054869;28;20204;-76
2023/12/04 06:40:24;;;;;;;9.45;6.05;;;6.10;63.40;7.90;100635.00;;;;5060792;28;20199;-76
2023/12/04 06:42:51;;;;;;;9.32;7.00;;;6.10;63.40;8.00;100617.00;;;;5054287;28;20588;-75
2023/12/04 06:45:20;;;;;;;8.98;6.53;;;6.10;63.30;7.90;100627.00;;;;5049241;28;20266;-76
2023/12/04 06:47:50;;;;;;;10.27;6.63;;;6.10;63.20;7.90;100618.00;;;;5061847;28;20215;-76
2023/12/04 06:50:17;;;;;;;9.07;6.05;;;6.10;63.20;8.00;100609.00;;;;5056999;28;20525;-76
2023/12/04 06:52:44;;;;;;;9.10;6.38;;;6.10;63.20;7.90;100613.00;;;;5048145;28;20815;-76
2023/12/04 06:55:12;;;;;;;10.15;7.10;;;6.10;63.20;7.90;100593.00;;;;5059799;28;20233;-77
2023/12/04 06:57:40;;;;;;;12.23;6.63;;;6.10;63.50;7.90;100601.00;;;;5055815;28;20207;-76
2023/12/04 07:00:12;;;;;;;10.27;6.80;;;6.10;63.10;7.90;100600.00;;;;5059129;28;20249;-75
2023/12/04 07:02:39;;;;;;;9.88;6.68;;;6.10;63.10;8.00;100597.00;;;;5048562;28;20223;-75
2023/12/04 07:05:07;;;;;;;9.60;6.50;;;6.10;63.20;8.00;100591.00;;;;5058863;28;20214;-75
2023/12/04 07:07:35;;;;;;;10.27;6.55;;;6.10;63.10;8.00;100590.00;;;;5063422;28;20199;-74
2023/12/04 07:10:01;;;;;;;9.57;6.43;;;6.10;63.00;8.00;100589.00;;;;5061656;28;20277;-76
2023/12/04 07:12:28;;;;;;;9.57;6.68;;;6.10;63.10;8.00;100580.00;;;;5059279;28;20318;-76
2023/12/04 07:14:57;;;;;;;8.82;6.47;;;6.10;63.10;8.00;100581.00;;;;5058212;28;20569;-75
2023/12/04 07:17:24;;;;;;;8.77;6.72;;;6.10;63.10;8.00;100586.00;;;;5063416;28;20196;-75
2023/12/04 07:19:51;;;;;;;8.13;5.50;;;6.10;63.10;8.00;100573.00;;;;5059547;28;20942;-76
2023/12/04 07:22:17;;;;;;;8.32;5.93;;;6.10;63.10;8.00;100590.00;;;;5068224;28;20221;-76
2023/12/04 07:24:44;;;;;;;10.35;6.88;;;6.10;63.10;8.00;100568.00;;;;5057413;28;20196;-76
2023/12/04 07:27:11;;;;;;;8.25;5.65;;;6.20;63.10;8.00;100570.00;;;;5068904;28;20210;-76
2023/12/04 07:29:39;;;;;;;7.78;5.45;;;6.20;63.00;8.00;100581.00;;;;5055688;28;20191;-76
2023/12/04 07:32:08;;;;;;;9.43;6.07;;;6.10;62.90;8.00;100587.00;;;;5060181;28;20199;-76
2023/12/04 07:34:35;;;;;;;7.93;5.95;;;6.20;62.90;8.00;100593.00;;;;5061492;28;20226;-76
2023/12/04 07:37:02;;;;;;;8.50;5.65;;;6.20;62.80;8.10;100587.00;;;;5067359;28;20195;-76
2023/12/04 07:39:29;;;;;;;8.55;5.93;;;6.20;62.70;8.00;100580.00;;;;5061529;28;20199;-77
2023/12/04 07:41:56;;;;;;;7.88;6.10;;;6.20;62.80;8.10;100574.00;;;;5052809;28;20199;-76
2023/12/04 07:44:23;;;;;;;8.35;6.35;;;6.20;62.80;8.10;100577.00;;;;5063037;28;20662;-77
2023/12/04 07:46:50;;;;;;;6.88;5.00;;;6.20;62.80;8.10;100581.00;;;;5062648;28;21037;-76
2023/12/04 07:49:18;;;;;;;9.40;6.13;;;6.20;62.80;8.10;100575.00;;;;5056518;28;20206;-77
2023/12/04 07:51:45;;;;;;;8.05;5.72;;;6.20;62.80;8.10;100572.00;;;;5050143;28;20278;-76
2023/12/04 07:54:13;;;;;;;7.10;5.57;;;6.20;62.70;8.10;100570.00;;;;5064912;28;20231;-77
2023/12/04 07:56:40;;;;;;;7.35;5.40;;;6.20;62.60;8.10;100567.00;;;;5065393;28;20199;-76
2023/12/04 07:59:07;;;;;;;8.73;5.72;;;6.30;62.60;8.10;100569.00;;;;5061314;28;20214;-76
2023/12/04 08:01:34;;;;;;;7.80;5.57;;;6.30;62.50;8.20;100568.00;;;;5054352;28;20695;-77
2023/12/04 08:04:02;;;;;;;8.98;5.50;;;6.30;62.40;8.20;100574.00;;;;5059056;28;20191;-77
2023/12/04 08:06:31;;;;;;;6.75;4.95;;;6.30;62.50;8.20;100573.00;;;;5055407;28;20200;-77
2023/12/04 08:08:59;;;;;;;8.43;5.55;;;6.30;62.50;8.20;100586.00;;;;5052370;28;20187;-76
2023/12/04 08:11:26;;;;;;;6.78;5.13;;;6.30;62.50;8.20;100583.00;;;;5063669;28;20306;-77
2023/12/04 08:13:53;;;;;;;8.35;5.90;;;6.40;62.50;8.20;100575.00;;;;5060556;28;20226;-77
2023/12/04 08:16:20;;;;;;;7.78;5.57;;;6.40;62.50;8.20;100587.00;;;;5059424;28;20204;-77
2023/12/04 08:18:47;;;;;;;8.63;5.78;;;6.30;62.40;8.30;100574.00;;;;5050846;28;20245;-77
2023/12/04 08:21:14;;;;;;;7.53;5.15;;;6.40;62.40;8.30;100577.00;;;;5056205;28;20207;-77
2023/12/04 08:23:43;;;;;;;7.60;6.13;;;6.40;62.40;8.30;100572.00;;;;5060271;28;20202;-77
2023/12/04 08:26:10;;;;;;;7.90;5.38;;;6.40;62.20;8.30;100566.00;;;;5061919;28;20199;-77
2023/12/04 08:28:37;;;;;;;8.52;5.13;;;6.40;62.20;8.30;100566.00;;;;5062124;28;20206;-77
2023/12/04 08:31:05;;;;;;;6.82;5.10;;;6.40;62.20;8.40;100563.00;;;;5056220;28;20231;-77
2023/12/04 12:25:49;;;;;;;10.23;6.50;;;3.50;70.30;3.60;100284.00;;;;5076223;27;20632;-73
2023/12/04 12:28:17;;;;;;;10.32;6.57;;;3.50;70.60;4.50;100281.00;;;;5058280;28;20202;-73
2023/12/04 12:30:45;;;;;;;11.80;6.72;;;3.90;70.10;5.30;100275.00;;;;5057716;28;20218;-73
2023/12/04 12:33:15;;;;;;;13.38;7.50;;;4.20;69.20;5.80;100278.00;;;;5060912;28;20195;-74
2023/12/04 12:35:42;;;;;;;10.05;6.78;;;4.60;68.50;6.30;100281.00;;;;5061264;28;20229;-74
2023/12/04 12:38:09;;;;;;;9.30;7.18;;;5.00;67.80;6.70;100276.00;;;;5062700;28;20210;-74
2023/12/04 12:40:36;;;;;;;10.55;6.90;;;5.20;67.90;7.00;100268.00;;;;5065534;28;20199;-74
2023/12/04 12:43:09;;;;;;;11.23;7.40;;;5.50;66.60;7.30;100260.00;;;;5065565;28;20194;-74
2023/12/04 12:45:42;;;;;;;11.98;7.45;;;5.70;66.20;7.50;100260.00;;;;5059838;28;20227;-74
2023/12/04 12:48:13;;;;;;;9.98;6.85;;;5.90;65.80;7.80;100251.00;;;;5065932;28;20249;-74
2023/12/04 12:50:40;;;;;;;11.82;7.28;;;6.10;65.40;8.00;100250.00;;;;5060796;28;20220;-74
2023/12/04 12:53:07;;;;;;;11.75;6.80;;;6.30;65.10;8.20;100242.00;;;;5063037;28;20203;-74
2023/12/04 12:55:35;;;;;;;10.13;6.90;;;6.40;65.50;8.30;100237.00;;;;5057160;28;20216;-74
2023/12/04 12:58:05;;;;;;;10.98;6.97;;;6.50;64.60;8.50;100239.00;;;;5040204;28;20195;-74
2023/12/04 13:00:35;;;;;;;9.63;6.78;;;6.60;64.40;8.60;100222.00;;;;5041017;28;20199;-74
2023/12/04 13:03:03;;;;;;;8.93;6.43;;;6.80;64.30;8.80;100229.00;;;;5039467;28;20214;-73
2023/12/04 13:05:30;;;;;;;11.02;7.13;;;6.90;64.00;8.90;100222.00;;;;5041393;28;20591;-74
2023/12/04 13:07:57;;;;;;;9.57;6.57;;;7.00;63.90;9.00;100219.00;;;;5043429;28;20204;-75
2023/12/04 13:10:24;;;;;;;11.18;6.72;;;7.10;63.60;9.00;100213.00;;;;5040386;28;20279;-74
2023/12/04 13:12:53;;;;;;;11.13;6.90;;;7.20;63.40;9.10;100223.00;;;;5040424;28;20615;-75
2023/12/04 13:15:20;;;;;;;8.10;5.75;;;7.20;63.10;9.10;100205.00;;;;5041036;28;20250;-74
2023/12/04 13:17:49;;;;;;;8.25;5.72;;;7.30;62.90;9.20;100213.00;;;;5044098;28;20203;-74
2023/12/04 13:20:16;;;;;;;7.65;5.88;;;7.30;62.70;9.20;100199.00;;;;5042111;28;20210;-74
2023/12/04 13:22:44;;;;;;;8.60;6.13;;;7.40;62.50;9.20;100196.00;;;;5040956;28;20699;-74
2023/12/04 13:25:12;;;;;;;7.95;5.63;;;7.40;62.40;9.20;100194.00;;;;5045081;28;20219;-75
2023/12/04 13:27:39;;;;;;;8.80;6.00;;;7.40;62.40;9.30;100193.00;;;;5044400;28;20298;-74
2023/12/04 13:30:08;;;;;;;7.88;6.05;;;7.40;62.40;9.30;100186.00;;;;5044605;28;20196;-74
2023/12/04 13:32:35;;;;;;;8.57;6.10;;;7.40;62.20;9.30;100181.00;;;;5041687;28;20287;-74
2023/12/04 13:35:05;;;;;;;8.57;6.20;;;7.50;62.20;9.30;100177.00;;;;5044238;28;20290;-74
2023/12/04 13:37:32;;;;;;;9.82;7.00;;;7.50;62.20;9.40;100170.00;;;;5032718;28;20195;-74
2023/12/04 13:40:06;;;;;;;9.50;6.00;;;7.50;62.00;9.40;100175.00;;;;5025446;28;20593;-73
2023/12/04 13:45:20;;;;;;;10.65;6.50;;;7.50;62.00;9.40;100184.00;;;;5027797;28;20223;-74
2023/12/04 13:47:47;;;;;;;10.27;7.03;;;7.60;61.90;9.40;100185.00;;;;5031635;28;20287;-73
2023/12/04 13:50:16;;;;;;;8.65;5.72;;;7.60;61.80;9.40;100181.00;;;;5033065;28;20197;-74
2023/12/04 13:52:44;;;;;;;8.77;5.93;;;7.50;61.80;9.40;100164.00;;;;5032714;28;20204;-74
2023/12/04 13:55:19;;;;;;;7.82;5.82;;;7.60;61.80;9.40;100171.00;;;;5031480;28;20220;-74
2023/12/04 13:58:09;;;;;;;9.75;5.97;;;7.60;61.80;9.50;100167.00;;;;5030222;28;20261;-74
2023/12/04 14:00:36;;;;;;;7.85;5.57;;;7.60;61.80;9.50;100157.00;;;;5025309;28;20204;-74
2023/12/04 14:03:04;;;;;;;7.75;5.57;;;7.60;61.90;9.50;100147.00;;;;5031828;28;20199;-73
2023/12/04 14:05:33;;;;;;;8.60;5.75;;;7.60;61.90;9.50;100147.00;;;;5032668;28;20587;-76
2023/12/04 14:08:00;;;;;;;6.88;5.57;;;7.60;61.90;9.50;100145.00;;;;5030140;28;20662;-75
2023/12/04 14:10:28;;;;;;;7.72;5.75;;;7.60;61.90;9.50;100143.00;;;;5032528;28;20192;-75
2023/12/04 14:12:56;;;;;;;7.85;5.90;;;7.60;61.90;9.50;100140.00;;;;5031525;28;20676;-75
2023/12/04 14:15:23;;;;;;;6.97;5.15;;;7.60;61.80;9.50;100126.00;;;;5030102;28;20197;-74
2023/12/04 14:17:50;;;;;;;8.90;5.60;;;7.60;61.80;9.50;100123.00;;;;5030996;28;20196;-75
2023/12/04 14:20:18;;;;;;;10.90;6.45;;;7.60;61.80;9.50;100122.00;;;;5032191;28;20206;-75
2023/12/04 14:22:47;;;;;;;8.57;5.75;;;7.60;61.70;9.50;100127.00;;;;5031112;28;20235;-74
2023/12/04 14:25:14;;;;;;;9.07;6.03;;;7.60;61.70;9.50;100122.00;;;;5030316;28;20536;-75
2023/12/04 14:27:43;;;;;;;7.97;5.95;;;7.60;61.60;9.50;100115.00;;;;5031309;28;20188;-74
2023/12/04 14:30:13;;;;;;;9.30;5.88;;;7.60;61.50;9.50;100113.00;;;;5032071;28;20250;-74
2023/12/04 14:32:41;;;;;;;7.55;5.75;;;7.60;61.60;9.50;100116.00;;;;5031403;28;20749;-75
2023/12/04 14:35:09;;;;;;;9.18;6.00;;;7.60;61.50;9.50;100114.00;;;;5028374;28;20228;-74
2023/12/04 14:37:36;;;;;;;10.65;6.30;;;7.60;61.50;9.50;100105.00;;;;5029582;28;20664;-74
2023/12/04 14:40:06;;;;;;;9.82;6.95;;;7.60;61.50;9.40;100107.00;;;;5031199;28;20191;-75
2023/12/04 14:42:34;;;;;;;8.57;5.85;;;7.60;61.50;9.40;100102.00;;;;5026169;28;20668;-74
2023/12/04 14:45:04;;;;;;;7.80;5.40;;;7.60;61.50;9.40;100095.00;;;;5026908;28;20303;-74
2023/12/04 14:47:31;;;;;;;7.95;5.60;;;7.50;61.50;9.40;100093.00;;;;5028749;28;20192;-75
2023/12/04 14:49:58;;;;;;;7.78;5.82;;;7.50;62.20;9.40;100092.00;;;;5030794;28;20668;-74
2023/12/04 14:52:28;;;;;;;8.55;6.07;;;7.50;61.40;9.40;100088.00;;;;5027144;28;20562;-75
2023/12/04 14:55:38;;;;;;;9.02;6.47;;;7.50;61.40;9.30;100096.00;;;;5031940;28;20243;-75